Time;durP1;ratioP1;P1;durP2;ratioP2;P2;SDS_P1;SDS_P2;PMS_P1;PMS_P2;Temp;Humidity;BMP_temperature;BMP_pressure;BME280_temperature;BME280_humidity;BME280_pressure;Samples;Min_cycle;Max_cycle;Signal;HPM_P1;HPM_P2
2020/12/07 00:00:51;;;;;;;12.10;5.72;;;;;;;8.13;67.36;98998.53;4381986;32;35024;-53
2020/12/07 00:03:19;;;;;;;9.85;5.93;;;;;;;8.26;66.91;98992.69;4360574;32;33047;-52
2020/12/07 00:05:46;;;;;;;10.85;6.00;;;;;;;8.06;67.77;99002.34;4367597;32;33432;-53
2020/12/07 00:08:13;;;;;;;8.02;5.20;;;;;;;8.14;67.12;98996.75;4386856;32;35695;-53
2020/12/07 00:10:41;;;;;;;11.90;6.12;;;;;;;8.04;67.23;98998.09;4363510;32;34778;-52
2020/12/07 00:13:08;;;;;;;9.85;5.95;;;;;;;8.37;66.20;98996.56;4370679;32;32868;-52
2020/12/07 00:15:38;;;;;;;11.68;5.80;;;;;;;8.35;66.36;99011.50;4390250;32;32906;-54
2020/12/07 00:18:05;;;;;;;12.05;5.80;;;;;;;8.10;67.06;99010.97;4381251;32;35819;-54
2020/12/07 00:20:33;;;;;;;10.98;6.03;;;;;;;8.35;66.21;99011.50;4387586;32;34381;-54
2020/12/07 00:23:00;;;;;;;9.02;5.32;;;;;;;8.52;65.55;99016.03;4379397;32;33223;-54
2020/12/07 00:25:27;;;;;;;8.98;5.55;;;;;;;8.20;66.71;99017.50;4370084;32;34643;-56
2020/12/07 00:27:54;;;;;;;9.45;5.37;;;;;;;8.57;65.28;99024.53;4388106;32;35457;-56
2020/12/07 00:30:21;;;;;;;8.52;5.20;;;;;;;8.67;64.89;99015.28;4380116;32;34110;-55
2020/12/07 00:32:49;;;;;;;8.23;5.20;;;;;;;8.27;66.58;99016.31;4372499;32;33833;-57
2020/12/07 00:35:16;;;;;;;9.00;5.43;;;;;;;8.39;65.87;99020.16;4390222;32;33597;-55
2020/12/07 00:37:43;;;;;;;7.22;4.82;;;;;;;8.60;65.19;99024.41;4390753;32;35032;-53
2020/12/07 00:40:11;;;;;;;8.05;4.55;;;;;;;8.30;65.89;99013.50;4390646;32;33955;-55
2020/12/07 00:42:38;;;;;;;8.05;4.60;;;;;;;8.54;65.23;99016.78;4390479;32;33251;-50
2020/12/07 00:45:05;;;;;;;8.40;4.97;;;;;;;8.79;64.15;99008.56;4391419;32;33160;-51
2020/12/07 00:47:33;;;;;;;10.30;5.55;;;;;;;8.80;64.49;99019.97;4389918;32;34782;-53
2020/12/07 00:50:00;;;;;;;7.75;5.00;;;;;;;8.84;64.06;99025.00;4377932;32;35803;-53
2020/12/07 00:52:28;;;;;;;6.47;4.40;;;;;;;8.59;65.10;99021.81;4377414;32;33172;-53
2020/12/07 00:54:55;;;;;;;7.37;4.47;;;;;;;8.56;64.81;99014.94;4391465;32;33620;-54
2020/12/07 00:57:22;;;;;;;8.13;4.80;;;;;;;8.37;65.73;99012.34;4377768;32;34811;-52
2020/12/07 00:59:49;;;;;;;8.75;4.65;;;;;;;8.72;64.52;99013.28;4377301;32;32723;-54
2020/12/07 01:02:17;;;;;;;6.30;4.40;;;;;;;8.55;65.19;99020.28;4387819;32;34723;-51
2020/12/07 01:04:44;;;;;;;12.82;5.18;;;;;;;8.78;64.53;99014.75;4362437;32;34466;-51
2020/12/07 01:07:11;;;;;;;8.75;5.53;;;;;;;8.85;64.11;99033.75;4383299;32;34912;-51
2020/12/07 01:09:39;;;;;;;6.70;4.70;;;;;;;8.51;65.02;99034.53;4370331;32;33434;-49
2020/12/07 01:12:08;;;;;;;9.25;4.57;;;;;;;8.52;65.07;99017.81;4358397;32;33274;-52
2020/12/07 01:14:35;;;;;;;7.75;4.55;;;;;;;8.84;64.16;99019.72;4383601;32;33927;-51
2020/12/07 01:17:04;;;;;;;6.20;4.20;;;;;;;8.69;64.85;99031.00;4391297;32;33835;-51
2020/12/07 01:19:32;;;;;;;8.48;4.40;;;;;;;8.84;64.02;99038.16;4389833;32;34356;-55
2020/12/07 01:22:01;;;;;;;7.95;5.37;;;;;;;8.92;63.94;99041.25;4359147;32;31748;-52
2020/12/07 01:24:30;;;;;;;9.70;4.50;;;;;;;8.90;63.71;99048.37;4373670;32;34557;-51
2020/12/07 01:26:58;;;;;;;7.65;4.25;;;;;;;9.06;63.09;99037.09;4369347;32;35027;-50
2020/12/07 01:29:26;;;;;;;7.78;4.35;;;;;;;9.04;63.20;99039.81;4348512;32;34718;-55
2020/12/07 01:31:53;;;;;;;8.07;4.47;;;;;;;8.89;63.57;99036.16;4360648;32;34187;-53
2020/12/07 01:34:20;;;;;;;7.18;4.35;;;;;;;8.47;64.79;99031.16;4362923;32;33920;-52
2020/12/07 01:36:47;;;;;;;8.77;4.87;;;;;;;8.38;65.24;99042.97;4387247;32;35868;-51
2020/12/07 01:39:15;;;;;;;11.15;4.90;;;;;;;8.63;64.42;99033.91;4381482;32;34447;-52
2020/12/07 01:41:43;;;;;;;8.32;4.10;;;;;;;8.26;65.70;99032.13;4365559;32;33408;-50
2020/12/07 01:44:12;;;;;;;6.80;4.07;;;;;;;8.66;64.31;99015.34;4390633;32;33781;-53
2020/12/07 01:46:40;;;;;;;8.65;4.87;;;;;;;8.35;65.30;99024.66;4376763;32;33326;-55
2020/12/07 01:49:07;;;;;;;10.60;4.57;;;;;;;8.54;64.91;99026.47;4376810;32;34986;-50
2020/12/07 01:51:38;;;;;;;8.65;4.62;;;;;;;8.39;65.07;99026.25;4378042;32;34449;-52
2020/12/07 01:54:09;;;;;;;7.00;3.93;;;;;;;8.23;65.53;99020.00;4389963;32;33838;-52
2020/12/07 01:56:38;;;;;;;7.50;4.45;;;;;;;8.34;65.21;99015.06;4384260;32;34717;-55
2020/12/07 01:59:07;;;;;;;6.00;3.50;;;;;;;8.39;64.88;99023.63;4389860;32;34102;-53
2020/12/07 02:01:38;;;;;;;6.53;3.87;;;;;;;8.50;64.38;99023.16;4376465;32;33204;-52
2020/12/07 02:04:05;;;;;;;5.80;4.25;;;;;;;8.28;65.28;99015.38;4390737;32;34650;-53
2020/12/07 02:06:32;;;;;;;7.82;4.07;;;;;;;8.21;65.37;99019.19;4376605;32;34674;-52
2020/12/07 02:09:00;;;;;;;7.45;4.32;;;;;;;8.59;64.35;99021.81;4389518;32;34290;-56
2020/12/07 02:11:29;;;;;;;7.00;3.97;;;;;;;8.55;64.28;99009.78;4377872;32;33214;-51
2020/12/07 02:13:57;;;;;;;10.20;4.10;;;;;;;8.46;64.26;99019.81;4389474;32;33270;-53
2020/12/07 02:16:24;;;;;;;5.00;3.33;;;;;;;8.44;64.10;99019.00;4360853;32;35660;-53
2020/12/07 02:18:56;;;;;;;6.95;4.20;;;;;;;8.37;64.39;99017.59;4375796;32;34024;-52
2020/12/07 02:21:24;;;;;;;5.95;3.45;;;;;;;8.25;64.66;99007.63;4370893;32;34031;-54
2020/12/07 02:23:52;;;;;;;7.43;4.37;;;;;;;8.37;64.35;99011.50;4359183;32;33502;-53
2020/12/07 02:26:19;;;;;;;4.68;2.83;;;;;;;8.54;63.56;99018.56;4376331;32;34633;-53
2020/12/07 02:28:49;;;;;;;6.55;3.80;;;;;;;8.25;64.49;99010.25;4388916;32;33827;-52
2020/12/07 02:31:17;;;;;;;5.93;3.28;;;;;;;8.34;64.45;99009.81;4376164;32;33298;-54
2020/12/07 02:33:45;;;;;;;4.75;3.08;;;;;;;8.32;64.18;99014.31;4379447;32;33466;-53
2020/12/07 02:36:12;;;;;;;6.78;3.20;;;;;;;8.44;63.92;99012.88;4391698;32;35728;-55
2020/12/07 02:38:40;;;;;;;4.30;3.05;;;;;;;8.58;63.46;99014.88;4392258;32;34439;-57
2020/12/07 02:41:07;;;;;;;4.93;3.08;;;;;;;8.19;64.38;99015.78;4391077;32;33599;-56
2020/12/07 02:43:35;;;;;;;5.20;3.50;;;;;;;8.19;64.74;99014.00;4391306;32;33494;-54
2020/12/07 02:46:03;;;;;;;6.43;2.92;;;;;;;8.37;63.71;99011.50;4377310;32;35038;-54
2020/12/07 02:48:31;;;;;;;5.70;3.30;;;;;;;8.47;63.51;99002.22;4377518;32;34175;-56
2020/12/07 02:50:59;;;;;;;5.72;3.50;;;;;;;8.06;64.93;99004.13;4374826;32;33120;-57
2020/12/07 02:53:27;;;;;;;6.20;3.20;;;;;;;8.53;63.27;99001.09;4384267;32;34657;-55
2020/12/07 02:55:54;;;;;;;5.05;3.83;;;;;;;8.41;63.79;98994.66;4392022;32;34874;-50
2020/12/07 02:58:22;;;;;;;4.65;2.87;;;;;;;8.25;64.19;98996.25;4392386;32;34919;-51
2020/12/07 03:00:50;;;;;;;5.00;3.40;;;;;;;8.35;63.89;99000.13;4378710;32;34197;-54
2020/12/07 03:03:18;;;;;;;5.20;2.97;;;;;;;8.40;63.64;98999.06;4391649;32;33673;-51
2020/12/07 03:05:46;;;;;;;6.40;3.08;;;;;;;8.42;63.67;99005.09;4391453;32;34100;-51
2020/12/07 03:08:13;;;;;;;5.47;3.20;;;;;;;8.44;63.56;99003.22;4391256;32;35098;-52
2020/12/07 03:10:41;;;;;;;4.82;2.97;;;;;;;7.99;64.93;99007.97;4390365;32;33191;-50
2020/12/07 03:13:08;;;;;;;5.40;3.55;;;;;;;7.77;65.36;99000.22;4392774;32;32974;-51
2020/12/07 03:15:36;;;;;;;4.90;3.22;;;;;;;7.91;65.22;98993.41;4387428;32;35771;-52
2020/12/07 03:18:04;;;;;;;6.30;3.28;;;;;;;8.08;64.76;98991.78;4391601;32;34204;-51
2020/12/07 03:20:32;;;;;;;6.07;3.35;;;;;;;7.99;64.84;98989.59;4392494;32;33165;-53
2020/12/07 03:23:01;;;;;;;6.72;3.78;;;;;;;8.19;64.46;99000.00;4392427;32;34414;-50
2020/12/07 03:25:28;;;;;;;4.43;3.00;;;;;;;8.35;63.58;98990.47;4392454;32;34839;-51
2020/12/07 03:27:56;;;;;;;7.70;3.87;;;;;;;8.26;64.07;98990.94;4377431;32;35221;-52
2020/12/07 03:30:24;;;;;;;6.18;3.72;;;;;;;7.90;65.00;98998.72;4389600;32;33538;-52
2020/12/07 03:32:52;;;;;;;6.62;3.15;;;;;;;8.04;64.75;98987.59;4378902;32;34288;-53
2020/12/07 03:35:19;;;;;;;9.25;4.30;;;;;;;8.08;64.54;98984.75;4378804;32;34946;-51
2020/12/07 03:37:46;;;;;;;6.15;3.47;;;;;;;7.94;64.82;98990.62;4391936;32;34190;-51
2020/12/07 03:40:14;;;;;;;6.95;4.75;;;;;;;7.95;65.23;98992.34;4392229;32;33249;-51
2020/12/07 03:42:42;;;;;;;6.10;3.53;;;;;;;8.17;64.04;98988.72;4390723;32;33459;-51
2020/12/07 03:45:10;;;;;;;9.32;3.67;;;;;;;7.84;65.20;98986.72;4392093;32;35746;-49
2020/12/07 03:47:38;;;;;;;7.07;4.05;;;;;;;8.08;64.58;98990.00;4377783;32;34041;-54
2020/12/07 03:50:06;;;;;;;6.78;4.10;;;;;;;7.74;65.55;98993.34;4392215;32;33411;-52
2020/12/07 03:52:36;;;;;;;5.93;3.62;;;;;;;7.67;66.01;98999.75;4391994;32;33449;-52
2020/12/07 03:55:05;;;;;;;5.50;3.80;;;;;;;7.72;65.70;98995.16;4378020;32;33287;-53
2020/12/07 03:57:32;;;;;;;5.87;4.22;;;;;;;7.92;64.89;98989.00;4378354;32;34321;-51
2020/12/07 04:00:00;;;;;;;6.47;4.35;;;;;;;8.19;64.24;98997.38;4366395;32;33219;-51
2020/12/07 04:02:28;;;;;;;6.10;3.62;;;;;;;8.17;64.10;99000.09;4378259;32;33634;-52
2020/12/07 04:05:01;;;;;;;9.85;4.82;;;;;;;8.00;65.01;98991.28;4364709;32;35762;-50
2020/12/07 04:07:28;;;;;;;6.82;4.07;;;;;;;8.03;64.42;98983.25;4390101;32;34322;-50
2020/12/07 04:09:57;;;;;;;5.57;3.95;;;;;;;8.09;64.52;98988.22;4392198;32;33516;-53
2020/12/07 04:12:24;;;;;;;8.10;4.43;;;;;;;8.11;64.42;98991.62;4375644;32;33696;-52
2020/12/07 04:14:51;;;;;;;6.07;4.25;;;;;;;8.34;63.41;98996.66;4376353;32;34817;-52
2020/12/07 04:17:19;;;;;;;6.35;3.97;;;;;;;8.46;63.06;98990.00;4376889;32;34128;-52
2020/12/07 04:19:46;;;;;;;5.90;4.37;;;;;;;8.25;63.68;98996.25;4390753;32;33321;-53
2020/12/07 04:22:13;;;;;;;6.68;3.90;;;;;;;8.10;64.29;99003.06;4376668;32;33751;-53
2020/12/07 04:24:40;;;;;;;6.90;4.45;;;;;;;8.36;63.51;99023.78;4376866;32;35842;-54
2020/12/07 04:27:07;;;;;;;8.75;4.95;;;;;;;7.83;65.22;99016.56;4365928;32;35179;-54
2020/12/07 04:29:35;;;;;;;6.70;4.00;;;;;;;8.15;64.12;99014.22;4392082;32;33161;-53
2020/12/07 04:32:03;;;;;;;7.22;4.03;;;;;;;8.46;63.12;99001.38;4375036;32;33352;-54
2020/12/07 04:34:30;;;;;;;8.60;4.78;;;;;;;8.25;63.71;99010.25;4376434;32;35685;-55
2020/12/07 04:36:57;;;;;;;7.97;4.22;;;;;;;7.98;64.74;99008.91;4369773;32;34099;-54
2020/12/07 04:39:24;;;;;;;8.40;3.55;;;;;;;8.00;64.59;99005.28;4392078;32;32960;-55
2020/12/07 04:41:51;;;;;;;6.12;4.10;;;;;;;7.75;65.50;99018.69;4389989;32;34551;-55
2020/12/07 04:44:19;;;;;;;7.03;3.78;;;;;;;8.04;64.74;99034.91;4383265;32;35430;-54
2020/12/07 04:46:46;;;;;;;6.93;4.03;;;;;;;8.20;63.76;99028.88;4386415;32;34950;-54
2020/12/07 04:49:15;;;;;;;8.07;4.35;;;;;;;8.09;64.55;99038.19;4391184;32;33259;-53
2020/12/07 04:51:42;;;;;;;7.00;3.95;;;;;;;8.11;64.51;99036.31;4377556;32;33283;-57
2020/12/07 04:54:13;;;;;;;10.45;4.85;;;;;;;8.02;65.14;99044.62;4378169;32;35836;-57
2020/12/07 04:56:40;;;;;;;6.55;4.00;;;;;;;8.38;63.79;99040.34;4378037;32;35165;-57
2020/12/07 04:59:08;;;;;;;6.93;4.03;;;;;;;8.55;63.02;99041.34;4390895;32;33829;-56
2020/12/07 05:01:36;;;;;;;7.05;3.85;;;;;;;8.23;64.03;99050.69;4377800;32;34375;-53
2020/12/07 05:04:03;;;;;;;5.22;3.60;;;;;;;8.55;62.67;99041.34;4377349;32;34616;-56
2020/12/07 05:06:31;;;;;;;6.20;3.60;;;;;;;8.48;63.22;99047.81;4378275;32;35358;-52
2020/12/07 05:08:58;;;;;;;8.73;3.50;;;;;;;8.90;61.78;99042.25;4378045;32;33684;-53
2020/12/07 05:11:26;;;;;;;5.90;3.45;;;;;;;8.27;64.22;99047.00;4390818;32;33715;-51
2020/12/07 05:14:07;;;;;;;5.10;3.35;;;;;;;8.37;63.65;99064.94;4389552;32;34718;-50
2020/12/07 05:16:34;;;;;;;7.50;3.90;;;;;;;8.38;63.54;99064.03;4374774;32;34166;-49
2020/12/07 05:19:08;;;;;;;8.52;4.53;;;;;;;8.46;63.32;99059.25;4367901;32;34221;-53
2020/12/07 05:21:36;;;;;;;7.03;3.50;;;;;;;8.14;64.25;99062.50;4390733;32;33435;-53
2020/12/07 05:24:05;;;;;;;11.73;4.10;;;;;;;8.40;63.32;99051.66;4389763;32;34614;-50
2020/12/07 05:26:33;;;;;;;5.35;3.28;;;;;;;8.45;63.13;99054.94;4390067;32;33982;-50
2020/12/07 05:31:55;;;;;;;8.50;4.20;;;;;;;8.28;63.94;99060.09;4375922;32;32465;-54
2020/12/07 05:34:24;;;;;;;5.30;3.65;;;;;;;7.90;65.34;99070.56;4376762;32;34168;-50
2020/12/07 05:36:55;;;;;;;6.75;3.95;;;;;;;8.26;63.81;99058.44;4376570;32;33755;-53
2020/12/07 05:39:25;;;;;;;5.33;3.60;;;;;;;8.19;64.09;99052.62;4365316;32;31182;-51
2020/12/07 05:41:53;;;;;;;9.05;4.55;;;;;;;8.13;64.56;99066.06;4372785;32;34501;-52
2020/12/07 05:44:21;;;;;;;6.20;4.12;;;;;;;8.37;63.58;99051.81;4375597;32;35936;-52
2020/12/07 05:46:51;;;;;;;5.20;3.90;;;;;;;8.01;64.56;99061.34;4387249;32;34482;-53
2020/12/07 05:49:18;;;;;;;7.20;4.32;;;;;;;8.05;64.19;99060.28;4369016;32;32876;-51
2020/12/07 05:51:55;;;;;;;5.72;3.87;;;;;;;8.04;64.64;99067.31;4374707;32;33258;-55
2020/12/07 05:54:23;;;;;;;7.07;4.45;;;;;;;8.50;63.10;99057.34;4376365;32;34894;-54
2020/12/07 05:56:55;;;;;;;5.07;3.28;;;;;;;8.27;63.65;99063.66;4376353;32;34107;-54
2020/12/07 05:59:29;;;;;;;6.55;3.83;;;;;;;8.14;63.80;99067.75;4377286;32;34129;-53
2020/12/07 06:01:58;;;;;;;5.45;3.42;;;;;;;8.16;63.97;99069.38;4388786;32;32231;-51
2020/12/07 06:04:29;;;;;;;5.22;3.17;;;;;;;8.05;64.57;99068.16;4390087;32;35717;-53
2020/12/07 06:07:01;;;;;;;5.68;3.70;;;;;;;8.22;64.24;99063.00;4376870;32;34224;-52
2020/12/07 06:09:29;;;;;;;7.62;3.65;;;;;;;8.06;64.44;99061.97;4376974;32;33210;-51
2020/12/07 06:12:04;;;;;;;6.25;3.78;;;;;;;8.45;63.31;99054.06;4376767;32;34484;-55
2020/12/07 06:14:32;;;;;;;6.78;3.75;;;;;;;8.66;62.51;99054.84;4373640;32;34762;-54
2020/12/07 06:17:00;;;;;;;5.93;3.72;;;;;;;8.19;63.88;99049.97;4369671;32;34925;-55
2020/12/07 06:19:31;;;;;;;6.97;4.12;;;;;;;8.54;62.91;99053.63;4377665;32;33028;-51
2020/12/07 06:22:03;;;;;;;5.72;3.67;;;;;;;8.52;62.88;99052.00;4386241;32;33556;-55
2020/12/07 06:24:41;;;;;;;4.87;3.50;;;;;;;7.90;64.81;99059.19;4375025;32;35394;-55
2020/12/07 06:27:10;;;;;;;6.60;3.55;;;;;;;7.98;64.79;99066.75;4389050;32;34356;-52
2020/12/07 06:29:37;;;;;;;6.40;4.15;;;;;;;8.12;64.19;99061.72;4389244;32;33840;-52
2020/12/07 06:32:05;;;;;;;6.05;3.58;;;;;;;8.01;64.83;99061.34;4375538;32;33430;-54
2020/12/07 06:34:39;;;;;;;7.32;4.12;;;;;;;8.17;64.31;99067.62;4382468;32;35483;-54
2020/12/07 06:37:08;;;;;;;5.43;3.45;;;;;;;7.94;64.73;99064.25;4389280;32;34063;-52
2020/12/07 06:39:44;;;;;;;7.53;4.15;;;;;;;8.01;64.85;99063.97;4373632;32;33087;-53
2020/12/07 06:42:15;;;;;;;8.52;3.90;;;;;;;7.89;64.91;99068.84;4377277;32;33976;-56
2020/12/07 06:44:44;;;;;;;7.78;3.72;;;;;;;7.80;65.55;99077.16;4384266;32;34572;-53
2020/12/07 06:47:23;;;;;;;7.30;3.87;;;;;;;8.16;64.28;99065.88;4373068;32;34554;-55
2020/12/07 06:49:56;;;;;;;7.25;3.62;;;;;;;8.04;64.89;99063.84;4380163;32;33542;-52
2020/12/07 06:52:25;;;;;;;7.10;4.00;;;;;;;8.08;64.65;99073.28;4375348;32;33580;-54
2020/12/07 06:55:09;;;;;;;5.60;3.55;;;;;;;7.96;64.97;99070.28;4372557;32;36750;-56
2020/12/07 06:57:42;;;;;;;6.45;3.70;;;;;;;8.07;64.77;99072.44;4384143;32;33059;-56
2020/12/07 07:00:20;;;;;;;7.47;4.18;;;;;;;7.94;65.34;99085.28;4388180;32;33345;-56
2020/12/07 07:02:57;;;;;;;6.60;3.95;;;;;;;8.08;64.91;99074.16;4386212;32;33499;-55
2020/12/07 07:05:25;;;;;;;;;;;;;;;7.79;65.95;99080.69;4374057;32;35679;-57
2020/12/07 07:07:53;;;;;;;7.20;3.97;;;;;;;7.91;65.63;99081.91;4375119;32;34613;-54
2020/12/07 07:10:20;;;;;;;5.53;3.50;;;;;;;7.56;66.85;99089.56;4385373;32;32602;-54
2020/12/07 07:12:50;;;;;;;7.97;4.45;;;;;;;7.98;65.54;99082.53;4387927;32;33381;-59
2020/12/07 07:15:20;;;;;;;8.18;4.32;;;;;;;8.02;65.49;99094.56;4373938;32;34940;-57
2020/12/07 07:17:48;;;;;;;6.68;4.18;;;;;;;7.79;66.10;99085.97;4374343;32;34670;-57
2020/12/07 07:20:16;;;;;;;8.02;3.95;;;;;;;8.10;65.11;99081.94;4390188;32;33095;-54
2020/12/07 07:22:48;;;;;;;6.80;3.95;;;;;;;8.13;65.00;99092.34;4386894;32;34223;-54
2020/12/07 07:30:31;;;;;;;8.82;4.57;;;;;;;7.98;65.97;99114.06;4387658;32;33158;-56
2020/12/07 07:32:59;;;;;;;7.60;4.20;;;;;;;8.18;65.38;99112.25;4376963;32;33777;-52
2020/12/07 07:35:28;;;;;;;7.87;4.80;;;;;;;7.78;66.66;99107.88;4388234;32;35513;-55
2020/12/07 07:37:56;;;;;;;10.38;5.45;;;;;;;7.98;66.49;99108.81;4369135;32;34122;-51
2020/12/07 07:40:30;;;;;;;12.18;6.28;;;;;;;8.02;66.66;99123.50;4377789;32;34734;-54
2020/12/07 07:43:00;;;;;;;10.90;5.87;;;;;;;7.93;67.32;99117.75;4374280;32;33754;-51
2020/12/07 07:45:33;;;;;;;9.68;5.12;;;;;;;8.25;65.90;99118.06;4389746;32;34813;-50
2020/12/07 07:48:07;;;;;;;8.32;5.12;;;;;;;8.10;66.46;99124.87;4375863;32;34093;-51
2020/12/07 08:15:43;;;;;;;8.88;4.40;;;;;;;8.37;67.55;99154.37;4390049;32;34381;-50
2020/12/07 08:18:17;;;;;;;9.65;4.45;;;;;;;8.18;68.48;99156.94;4348070;32;34955;-50
2020/12/07 08:20:55;;;;;;;11.12;5.90;;;;;;;8.40;67.14;99154.25;4351450;32;34989;-54
2020/12/07 08:23:26;;;;;;;9.38;4.87;;;;;;;8.54;67.00;99160.66;4369555;32;35091;-52
2020/12/07 08:25:54;;;;;;;5.85;4.20;;;;;;;8.30;67.54;99163.44;4327503;32;33187;-54
2020/12/07 08:28:33;;;;;;;10.30;4.75;;;;;;;8.42;67.17;99162.94;4364351;32;34762;-51
2020/12/07 08:31:00;;;;;;;9.80;4.95;;;;;;;8.29;67.65;99177.50;4367364;32;34442;-56
2020/12/07 08:33:29;;;;;;;8.52;5.47;;;;;;;8.55;67.48;99179.03;4364986;32;33362;-53
2020/12/07 08:35:56;;;;;;;7.72;5.28;;;;;;;8.29;68.39;99177.50;4356917;32;32653;-55
2020/12/07 08:38:26;;;;;;;10.68;5.03;;;;;;;8.45;68.05;99175.06;4364340;32;35279;-54
2020/12/07 08:41:01;;;;;;;9.63;5.47;;;;;;;8.17;68.82;99172.81;4341343;32;34236;-55
2020/12/07 08:43:29;;;;;;;14.45;6.32;;;;;;;8.14;69.86;99172.94;4347084;32;34094;-53
2020/12/07 08:45:56;;;;;;;9.73;6.30;;;;;;;8.51;68.56;99176.59;4364045;32;33351;-54
2020/12/07 08:48:24;;;;;;;9.65;5.95;;;;;;;8.35;69.90;99179.84;4361059;32;34711;-56
2020/12/07 08:50:54;;;;;;;10.02;6.35;;;;;;;8.56;69.00;99185.13;4355170;32;33934;-55
2020/12/07 08:53:22;;;;;;;10.30;5.60;;;;;;;8.50;69.48;99188.03;4377905;32;33267;-56
2020/12/07 08:55:50;;;;;;;8.88;6.37;;;;;;;8.12;70.69;99196.69;4389040;32;33507;-54
2020/12/07 08:58:17;;;;;;;10.90;6.80;;;;;;;8.37;70.53;99193.84;4388143;32;34485;-52
2020/12/07 09:00:44;;;;;;;12.70;7.60;;;;;;;8.49;70.58;99199.47;4389171;32;34233;-52
2020/12/07 09:03:13;;;;;;;9.40;6.97;;;;;;;8.18;71.53;99200.81;4390320;32;33325;-52
2020/12/07 09:05:41;;;;;;;12.20;6.37;;;;;;;8.31;71.10;99204.62;4387952;32;33913;-57
2020/12/07 09:08:08;;;;;;;9.88;5.87;;;;;;;8.61;70.07;99196.31;4389351;32;34735;-56
2020/12/07 09:10:35;;;;;;;9.98;7.07;;;;;;;8.84;69.57;99201.37;4390720;32;34981;-55
2020/12/07 09:13:03;;;;;;;11.05;6.82;;;;;;;8.70;70.10;99198.53;4390595;32;32799;-53
2020/12/07 09:15:31;;;;;;;13.88;6.93;;;;;;;8.62;69.96;99208.53;4370428;32;33763;-53
2020/12/07 09:17:58;;;;;;;11.10;7.78;;;;;;;8.83;69.95;99202.31;4387916;32;35133;-54
2020/12/07 09:20:26;;;;;;;11.10;7.20;;;;;;;8.79;70.58;99203.38;4374793;32;35276;-52
2020/12/07 09:22:53;;;;;;;14.18;8.07;;;;;;;8.83;69.93;99210.22;4390343;32;33430;-52
2020/12/07 09:25:20;;;;;;;11.43;7.50;;;;;;;9.18;69.06;99205.06;4389997;32;34415;-51
2020/12/07 09:27:48;;;;;;;10.38;7.53;;;;;;;9.34;68.58;99200.75;4376164;32;34657;-55
2020/12/07 09:30:15;;;;;;;11.90;7.65;;;;;;;9.35;68.62;99196.34;4375959;32;34861;-53
2020/12/07 09:32:42;;;;;;;11.12;7.35;;;;;;;9.34;68.79;99206.03;4388884;32;34092;-52
2020/12/07 09:35:10;;;;;;;13.55;9.50;;;;;;;9.32;68.31;99204.41;4390483;32;33693;-50
2020/12/07 09:37:37;;;;;;;15.00;8.43;;;;;;;9.02;69.79;99218.09;4363726;32;35331;-55
2020/12/07 09:40:05;;;;;;;14.23;8.20;;;;;;;9.06;69.91;99210.91;4388308;32;35019;-54
2020/12/07 09:42:33;;;;;;;15.77;8.85;;;;;;;9.19;69.37;99207.63;4388540;32;31071;-54
2020/12/07 09:45:00;;;;;;;14.13;8.90;;;;;;;9.36;68.55;99201.56;4387007;32;33170;-52
2020/12/07 09:47:27;;;;;;;16.42;10.05;;;;;;;9.29;68.94;99205.41;4384441;32;34208;-51
2020/12/07 09:49:55;;;;;;;16.42;8.95;;;;;;;8.92;70.61;99204.50;4376398;32;35188;-50
2020/12/07 09:52:22;;;;;;;14.85;9.45;;;;;;;9.05;70.41;99215.31;4389877;32;33181;-50
2020/12/07 09:54:50;;;;;;;14.10;9.52;;;;;;;9.09;70.60;99208.97;4389188;32;34182;-50
2020/12/07 09:57:17;;;;;;;15.02;9.10;;;;;;;9.08;70.68;99222.22;4381466;32;195640;-54
2020/12/07 09:59:48;;;;;;;14.05;9.50;;;;;;;9.29;69.88;99208.03;4390391;32;34365;-51
2020/12/07 10:02:15;;;;;;;15.65;9.63;;;;;;;9.51;68.86;99204.38;4387986;32;33457;-53
2020/12/07 10:04:43;;;;;;;19.75;9.52;;;;;;;9.65;68.52;99209.81;4390067;32;34535;-53
2020/12/07 10:07:10;;;;;;;15.20;9.48;;;;;;;9.58;68.76;99213.66;4390428;32;35612;-53
2020/12/07 10:09:37;;;;;;;16.48;9.98;;;;;;;9.65;68.54;99215.94;4387454;32;35213;-52
2020/12/07 10:12:05;;;;;;;17.17;10.35;;;;;;;9.17;70.27;99209.47;4386654;32;34122;-53
2020/12/07 10:14:32;;;;;;;18.67;9.55;;;;;;;9.13;70.41;99209.69;4375378;32;33725;-53
2020/12/07 10:17:00;;;;;;;16.67;10.98;;;;;;;9.34;69.86;99206.03;4385631;32;34422;-54
2020/12/07 10:19:28;;;;;;;16.73;9.13;;;;;;;9.12;71.05;99210.63;4372764;32;34145;-55
2020/12/07 10:21:55;;;;;;;13.93;8.40;;;;;;;9.34;70.02;99199.91;4363454;32;33153;-53
2020/12/07 10:24:22;;;;;;;14.90;8.73;;;;;;;9.30;69.65;99201.81;4387814;32;34519;-54
2020/12/07 10:26:50;;;;;;;16.65;8.60;;;;;;;9.18;70.13;99192.75;4388573;32;34743;-50
2020/12/07 10:29:17;;;;;;;13.80;9.38;;;;;;;8.86;71.26;99199.50;4389952;32;34116;-55
2020/12/07 10:31:44;;;;;;;10.73;8.40;;;;;;;8.36;73.50;99205.31;4385073;32;33478;-54
2020/12/07 10:34:11;;;;;;;14.00;8.30;;;;;;;8.70;72.14;99209.06;4389769;32;34673;-54
2020/12/07 10:36:39;;;;;;;12.48;9.32;;;;;;;8.63;72.49;99208.44;4384584;32;34731;-51
2020/12/07 10:39:07;;;;;;;12.88;9.15;;;;;;;8.76;72.31;99200.87;4376143;32;34907;-52
2020/12/07 10:41:34;;;;;;;16.08;8.70;;;;;;;9.03;71.72;99200.53;4389163;32;34026;-55
2020/12/07 10:44:01;;;;;;;14.95;8.27;;;;;;;9.07;70.91;99200.31;4387725;32;33800;-54
2020/12/07 10:46:30;;;;;;;9.77;7.07;;;;;;;8.85;71.68;99203.06;4374733;32;35312;-52
2020/12/07 10:48:57;;;;;;;11.00;7.05;;;;;;;8.74;72.30;99205.38;4388529;32;34308;-53
2020/12/07 10:51:24;;;;;;;12.63;7.18;;;;;;;8.58;72.34;99199.06;4390341;32;34261;-54
2020/12/07 10:53:52;;;;;;;13.23;7.97;;;;;;;8.87;71.62;99209.09;4389162;32;33627;-52
2020/12/07 10:56:19;;;;;;;11.25;8.05;;;;;;;9.28;70.11;99201.06;4389335;32;35725;-53
2020/12/07 10:58:47;;;;;;;7.90;6.45;;;;;;;8.66;72.15;99205.69;4390294;32;34172;-50
2020/12/07 11:01:16;;;;;;;8.15;6.43;;;;;;;8.81;71.31;99211.19;4391844;32;33234;-55
2020/12/07 11:03:45;;;;;;;7.85;6.10;;;;;;;8.73;72.29;99208.87;4376490;32;33720;-50
2020/12/07 11:06:18;;;;;;;9.23;6.72;;;;;;;8.87;71.25;99203.84;4366006;32;34526;-56
2020/12/07 11:08:51;;;;;;;10.00;6.97;;;;;;;9.09;69.85;99197.59;4376502;32;35272;-54
2020/12/07 11:11:20;;;;;;;9.48;6.97;;;;;;;8.69;71.89;99204.72;4388799;32;33176;-54
2020/12/07 11:13:48;;;;;;;11.25;6.53;;;;;;;8.71;72.19;99205.50;4390362;32;34167;-54
2020/12/07 11:16:16;;;;;;;6.35;5.00;;;;;;;8.77;70.89;99205.19;4377964;32;35844;-54
2020/12/07 11:18:43;;;;;;;7.47;5.60;;;;;;;8.41;71.75;99203.31;4387911;32;34196;-53
2020/12/07 11:21:20;;;;;;;11.05;6.28;;;;;;;7.84;74.40;99202.25;4391125;32;33135;-50
2020/12/07 11:23:48;;;;;;;13.68;6.03;;;;;;;8.39;73.04;99197.25;4378862;32;33988;-55
2020/12/07 11:26:16;;;;;;;9.27;5.62;;;;;;;8.12;73.72;99201.94;4391928;32;35698;-52
2020/12/07 11:28:45;;;;;;;8.38;5.37;;;;;;;8.42;73.17;99204.16;4377118;32;35167;-53
2020/12/07 11:31:14;;;;;;;9.65;5.62;;;;;;;8.66;72.04;99203.06;4377045;32;32818;-50
2020/12/07 11:33:42;;;;;;;6.57;4.75;;;;;;;8.50;73.03;99199.44;4364327;32;32111;-51
2020/12/07 11:36:14;;;;;;;9.75;5.78;;;;;;;8.37;73.46;99200.87;4390175;32;35058;-52
2020/12/07 11:38:56;;;;;;;14.75;5.60;;;;;;;8.51;72.38;99192.37;4391258;32;34125;-52
2020/12/07 11:44:11;;;;;;;9.00;5.82;;;;;;;8.32;73.72;99195.81;4391943;32;34329;-52
2020/12/07 11:49:11;;;;;;;8.57;5.70;;;;;;;8.77;71.99;99194.66;4389005;32;34217;-53
2020/12/07 11:51:39;;;;;;;10.68;6.75;;;;;;;8.51;73.05;99197.66;4391239;32;34391;-54
2020/12/07 11:54:06;;;;;;;9.27;6.50;;;;;;;8.78;71.81;99199.00;4377812;32;33951;-55
2020/12/07 11:56:35;;;;;;;9.98;6.30;;;;;;;8.43;72.80;99204.09;4385736;32;34574;-52
2020/12/07 11:59:04;;;;;;;10.07;7.40;;;;;;;8.44;73.72;99197.03;4390162;32;33905;-51
2020/12/07 12:01:31;;;;;;;11.18;7.43;;;;;;;8.43;73.22;99197.97;4391402;32;33192;-52
2020/12/07 12:04:00;;;;;;;11.40;6.32;;;;;;;8.52;73.04;99207.25;4387981;32;33761;-52
2020/12/07 12:06:34;;;;;;;15.02;8.52;;;;;;;8.57;72.93;99202.63;4389462;32;35425;-52
2020/12/07 12:09:04;;;;;;;15.15;7.50;;;;;;;8.82;72.42;99205.84;4375376;32;34893;-51
2020/12/07 12:11:33;;;;;;;11.25;7.78;;;;;;;8.62;73.00;99200.63;4391233;32;33254;-51
2020/12/07 12:14:02;;;;;;;11.50;7.10;;;;;;;8.54;73.41;99202.75;4392138;32;33982;-52
2020/12/07 12:16:30;;;;;;;10.68;7.30;;;;;;;8.51;73.31;99197.66;4392266;32;35602;-54
2020/12/07 12:19:03;;;;;;;11.70;7.30;;;;;;;8.76;72.63;99203.50;4385987;32;34474;-53
2020/12/07 12:21:31;;;;;;;15.52;9.63;;;;;;;8.58;73.14;99204.31;4381379;32;33230;-52
2020/12/07 12:24:02;;;;;;;16.62;10.43;;;;;;;8.57;73.39;99208.75;4392171;32;33510;-50